createdAt,value
2023-02-17T00:04:56.875Z,1.23
2023-02-17T00:10:01.628Z,1.22
2023-02-17T00:15:13.376Z,1.27
2023-02-17T00:20:17.386Z,1.37
2023-02-17T00:25:21.345Z,1.48
2023-02-17T00:30:25.164Z,1.67
2023-02-17T00:35:31.657Z,1.96
2023-02-17T00:40:35.488Z,2.17
2023-02-17T00:45:42.258Z,2.17
2023-02-17T00:50:46.729Z,2.15
2023-02-17T00:55:50.719Z,2.16
2023-02-17T01:01:01.782Z,2.23
2023-02-17T01:06:08.377Z,2.37
2023-02-17T01:11:24.709Z,2.47
2023-02-17T01:16:35.602Z,2.60
2023-02-17T01:21:40.036Z,2.61
2023-02-17T01:26:49.127Z,2.65
2023-02-17T01:31:53.430Z,2.80
2023-02-17T01:36:57.900Z,2.85
2023-02-17T01:42:04.077Z,2.73
2023-02-17T01:47:13.357Z,2.75
2023-02-17T01:52:23.746Z,2.80
2023-02-17T01:57:31.323Z,2.88
2023-02-17T02:02:38.048Z,2.94
2023-02-17T02:07:43.184Z,2.99
2023-02-17T02:12:50.127Z,3.02
2023-02-17T02:18:21.898Z,3.05
2023-02-17T02:23:47.937Z,3.12
2023-02-17T02:29:48.713Z,3.20
2023-02-17T02:35:02.150Z,3.34
2023-02-17T02:40:09.299Z,3.39
2023-02-17T02:45:14.428Z,3.41
2023-02-17T02:50:36.416Z,3.52
2023-02-17T02:56:29.397Z,3.60
2023-02-17T03:02:22.932Z,3.53
2023-02-17T03:07:40.322Z,3.35
2023-02-17T03:12:45.629Z,3.22
2023-02-17T03:17:49.530Z,3.18
2023-02-17T03:22:55.189Z,3.20
2023-02-17T03:28:04.377Z,3.21
2023-02-17T03:33:09.137Z,3.31
2023-02-17T03:38:13.048Z,3.43
2023-02-17T03:43:18.109Z,3.52
2023-02-17T03:48:33.119Z,3.55
2023-02-17T03:53:40.453Z,3.59
2023-02-17T03:58:44.402Z,3.63
2023-02-17T04:03:48.516Z,3.62
2023-02-17T04:08:56.412Z,3.59
2023-02-17T04:14:00.460Z,3.51
2023-02-17T04:19:04.384Z,3.41
2023-02-17T04:24:08.545Z,3.35
2023-02-17T04:29:12.316Z,3.33
2023-02-17T04:34:17.663Z,3.25
2023-02-17T04:39:22.161Z,3.15
2023-02-17T04:44:26.217Z,3.09
2023-02-17T04:49:31.205Z,3.02
2023-02-17T04:54:35.233Z,3.02
2023-02-17T04:59:40.904Z,3.06
2023-02-17T05:04:46.445Z,3.08
2023-02-17T05:09:50.693Z,3.09
2023-02-17T05:14:58.331Z,3.07
2023-02-17T05:20:09.276Z,3.08
2023-02-17T05:25:15.716Z,3.11
2023-02-17T05:30:20.089Z,3.14
2023-02-17T05:35:25.242Z,3.17
2023-02-17T05:40:35.337Z,3.26
2023-02-17T05:45:39.162Z,3.39
2023-02-17T05:50:46.131Z,3.49
2023-02-17T05:55:49.967Z,3.62
2023-02-17T06:00:54.088Z,3.74
2023-02-17T06:05:58.235Z,3.86
2023-02-17T06:11:02.355Z,4.00
2023-02-17T06:16:12.403Z,4.12
2023-02-17T06:21:16.264Z,4.25
2023-02-17T06:26:23.672Z,4.32
2023-02-17T06:31:30.560Z,4.33
2023-02-17T06:36:34.565Z,4.35
2023-02-17T06:41:38.543Z,4.43
2023-02-17T06:46:42.413Z,4.49
2023-02-17T06:51:52.215Z,4.56
2023-02-17T06:56:59.108Z,4.60
2023-02-17T07:02:05.941Z,4.69
2023-02-17T07:07:10.672Z,4.77
2023-02-17T07:12:14.642Z,4.84
2023-02-17T07:17:18.339Z,4.90
2023-02-17T07:22:22.181Z,4.99
2023-02-17T07:27:26.150Z,5.06
2023-02-17T07:32:32.856Z,5.11
2023-02-17T07:37:37.714Z,5.14
2023-02-17T07:42:41.527Z,5.20
2023-02-17T07:47:47.569Z,5.29
2023-02-17T07:52:51.779Z,5.38
2023-02-17T07:57:55.666Z,5.47
2023-02-17T08:02:59.732Z,5.56
2023-02-17T08:08:22.064Z,5.68
2023-02-17T08:13:28.503Z,5.83
2023-02-17T08:18:36.537Z,6.02
2023-02-17T08:23:43.330Z,6.22
2023-02-17T08:28:50.243Z,6.34
2023-02-17T08:33:54.357Z,6.43
2023-02-17T08:38:59.201Z,6.55
2023-02-17T08:44:07.282Z,6.72
2023-02-17T08:49:11.349Z,6.91
2023-02-17T08:54:16.125Z,7.04
2023-02-17T08:59:20.665Z,7.14
2023-02-17T09:04:25.023Z,7.19
2023-02-17T09:09:29.417Z,7.28
2023-02-17T09:14:33.760Z,7.37
2023-02-17T09:19:41.380Z,7.46
2023-02-17T09:24:47.552Z,7.53
2023-02-17T09:29:51.500Z,7.58
2023-02-17T09:34:55.659Z,7.60
2023-02-17T09:39:59.678Z,7.62
2023-02-17T09:45:12.841Z,7.65
2023-02-17T09:50:29.030Z,7.69
2023-02-17T09:55:50.521Z,7.74
2023-02-17T10:00:59.327Z,7.76
2023-02-17T10:06:19.689Z,7.79
2023-02-17T10:11:55.444Z,7.82
2023-02-17T10:17:27.937Z,7.86
2023-02-17T10:22:31.832Z,7.92
2023-02-17T10:28:11.342Z,7.99
2023-02-17T10:33:28.696Z,8.13
2023-02-17T10:38:54.984Z,8.25
2023-02-17T10:44:01.043Z,8.35
2023-02-17T10:49:07.134Z,8.46
2023-02-17T10:54:22.276Z,8.56
2023-02-17T10:59:47.441Z,8.65
2023-02-17T11:04:55.492Z,8.76
2023-02-17T11:10:02.429Z,8.93
2023-02-17T11:15:16.187Z,9.10
2023-02-17T11:20:40.393Z,9.19
2023-02-17T11:25:44.835Z,9.20
2023-02-17T11:30:55.087Z,9.19
2023-02-17T11:35:59.899Z,9.26
2023-02-17T11:41:07.340Z,9.36
2023-02-17T11:46:39.518Z,9.53
2023-02-17T11:52:05.261Z,9.62
2023-02-17T11:57:39.693Z,9.68
2023-02-17T12:03:25.625Z,9.73
2023-02-17T12:09:17.488Z,9.84
2023-02-17T12:14:59.033Z,9.99
2023-02-17T12:20:25.477Z,10.17
2023-02-17T12:25:36.204Z,10.29
2023-02-17T12:31:09.899Z,10.35
2023-02-17T12:36:17.712Z,10.30
2023-02-17T12:41:25.677Z,10.29
2023-02-17T12:46:35.677Z,10.32
2023-02-17T12:51:48.874Z,10.29
2023-02-17T12:57:22.063Z,10.25
2023-02-17T13:02:26.940Z,10.18
2023-02-17T13:08:00.807Z,10.16
2023-02-17T13:13:10.185Z,10.13
2023-02-17T13:18:32.294Z,10.15
2023-02-17T13:23:41.516Z,10.21
2023-02-17T13:28:46.203Z,10.22
2023-02-17T13:33:52.973Z,10.14
2023-02-17T13:39:01.410Z,10.00
2023-02-17T13:44:29.926Z,9.85
2023-02-17T13:49:35.690Z,9.70
2023-02-17T13:54:39.670Z,9.56
2023-02-17T13:59:43.743Z,9.50
2023-02-17T14:04:48.015Z,9.42
2023-02-17T14:09:55.283Z,9.34
2023-02-17T14:14:59.184Z,9.22
2023-02-17T14:20:04.679Z,9.13
2023-02-17T14:25:14.284Z,9.03
2023-02-17T14:30:38.707Z,8.90
2023-02-17T14:36:01.426Z,8.79
2023-02-17T14:41:07.275Z,8.73
2023-02-17T14:46:12.287Z,8.73
2023-02-17T14:51:20.306Z,8.74
2023-02-17T14:56:37.565Z,8.75
2023-02-17T15:01:42.002Z,8.76
2023-02-17T15:06:53.295Z,8.77
2023-02-17T15:11:58.476Z,8.80
2023-02-17T15:17:03.212Z,8.84
2023-02-17T15:22:08.695Z,8.90
2023-02-17T15:27:17.761Z,8.93
2023-02-17T15:32:25.502Z,8.95
2023-02-17T15:37:30.016Z,8.98
2023-02-17T15:42:34.942Z,8.97
2023-02-17T15:47:39.600Z,8.94
2023-02-17T15:52:46.590Z,8.96
2023-02-17T15:57:58.786Z,9.04
2023-02-17T16:03:06.286Z,9.10
2023-02-17T16:08:15.907Z,9.21
2023-02-17T16:13:20.896Z,9.26
2023-02-17T16:18:28.063Z,9.30
2023-02-17T16:23:33.221Z,9.29
2023-02-17T16:28:37.387Z,9.18
2023-02-17T16:33:42.242Z,9.01
2023-02-17T16:38:54.419Z,8.88
2023-02-17T16:43:59.474Z,8.77
2023-02-17T16:49:36.978Z,8.70
2023-02-17T16:54:41.377Z,8.64
2023-02-17T16:59:47.674Z,8.62
2023-02-17T17:04:57.209Z,8.60
2023-02-17T17:10:57.740Z,8.55
2023-02-17T17:16:37.936Z,8.52
2023-02-17T17:21:54.714Z,8.48
2023-02-17T17:27:05.133Z,8.46
2023-02-17T17:32:16.588Z,8.44
2023-02-17T19:18:35.926Z,12.12
2023-02-17T19:23:42.364Z,12.19
2023-02-17T19:28:47.198Z,12.12
2023-02-17T19:33:54.334Z,12.19
2023-02-17T19:39:01.814Z,12.25
2023-02-17T19:44:50.354Z,12.31
2023-02-17T19:50:17.807Z,12.21
2023-02-17T19:55:28.732Z,12.03
2023-02-17T20:00:42.301Z,12.01
2023-02-17T20:05:56.273Z,11.90
2023-02-17T20:11:10.429Z,11.82
2023-02-17T20:16:27.451Z,11.78
2023-02-17T20:22:23.736Z,11.73
2023-02-17T20:27:32.966Z,11.62
2023-02-17T20:32:42.123Z,11.59
2023-02-17T20:37:56.042Z,11.51
2023-02-17T20:43:09.370Z,11.44
2023-02-17T20:48:28.666Z,11.25
2023-02-17T20:53:34.615Z,11.15
2023-02-17T20:58:40.431Z,10.98
2023-02-17T21:03:46.027Z,10.88
2023-02-17T21:08:52.875Z,10.74
2023-02-17T21:13:58.797Z,10.72
2023-02-17T21:19:04.906Z,10.67
2023-02-17T21:24:10.033Z,10.59
2023-02-17T21:29:14.834Z,10.55
2023-02-17T21:34:20.014Z,10.64
2023-02-17T21:39:24.762Z,10.69
2023-02-17T21:44:48.946Z,10.71
2023-02-17T21:49:55.259Z,10.62
2023-02-17T21:55:01.742Z,10.64
2023-02-17T22:00:07.184Z,10.65
2023-02-17T22:05:17.552Z,10.64
2023-02-17T22:10:21.497Z,10.63
2023-02-17T22:15:25.502Z,10.40
2023-02-17T22:20:29.324Z,9.82
2023-02-17T22:25:33.277Z,9.44
2023-02-17T22:30:37.261Z,9.24
2023-02-17T22:35:41.270Z,9.11
2023-02-17T22:40:45.257Z,9.15
2023-02-17T22:45:49.249Z,9.21
2023-02-17T22:50:53.314Z,9.24
2023-02-17T22:55:58.214Z,9.21
2023-02-17T23:01:09.347Z,9.13
2023-02-17T23:06:15.653Z,9.06
2023-02-17T23:11:42.790Z,9.05
2023-02-17T23:16:47.077Z,9.01
2023-02-17T23:21:54.029Z,8.97
2023-02-17T23:27:00.773Z,8.88
2023-02-17T23:32:05.392Z,8.79
2023-02-17T23:37:09.468Z,8.77
2023-02-17T23:42:13.366Z,8.75
2023-02-17T23:47:17.302Z,8.71
2023-02-17T23:52:21.425Z,8.60
2023-02-17T23:57:27.094Z,8.48
